sensor_id;sensor_type;location;lat;lon;timestamp;P1;durP1;ratioP1;P2;durP2;ratioP2
4375;SDS011;2202;50.866;12.750;2022-10-23T00:01:37;9.43;;;3.70;;
4375;SDS011;2202;50.866;12.750;2022-10-23T00:04:09;5.83;;;3.40;;
4375;SDS011;2202;50.866;12.750;2022-10-23T00:06:37;7.20;;;3.63;;
4375;SDS011;2202;50.866;12.750;2022-10-23T00:09:06;8.37;;;3.97;;
4375;SDS011;2202;50.866;12.750;2022-10-23T00:11:34;4.53;;;3.40;;
4375;SDS011;2202;50.866;12.750;2022-10-23T00:14:02;7.00;;;4.33;;
4375;SDS011;2202;50.866;12.750;2022-10-23T00:16:31;7.97;;;4.00;;
4375;SDS011;2202;50.866;12.750;2022-10-23T00:18:59;5.87;;;3.30;;
4375;SDS011;2202;50.866;12.750;2022-10-23T00:21:27;9.67;;;3.70;;
4375;SDS011;2202;50.866;12.750;2022-10-23T00:23:54;5.50;;;3.70;;
4375;SDS011;2202;50.866;12.750;2022-10-23T00:26:21;5.67;;;3.73;;
4375;SDS011;2202;50.866;12.750;2022-10-23T00:28:48;7.60;;;3.50;;
4375;SDS011;2202;50.866;12.750;2022-10-23T00:31:17;10.03;;;3.60;;
4375;SDS011;2202;50.866;12.750;2022-10-23T00:33:45;5.60;;;4.27;;
4375;SDS011;2202;50.866;12.750;2022-10-23T00:36:13;6.20;;;4.00;;
4375;SDS011;2202;50.866;12.750;2022-10-23T00:38:43;7.03;;;3.73;;
4375;SDS011;2202;50.866;12.750;2022-10-23T00:41:13;7.20;;;3.90;;
4375;SDS011;2202;50.866;12.750;2022-10-23T00:43:55;6.60;;;4.70;;
4375;SDS011;2202;50.866;12.750;2022-10-23T00:46:24;6.33;;;3.40;;
4375;SDS011;2202;50.866;12.750;2022-10-23T00:48:52;6.90;;;3.40;;
4375;SDS011;2202;50.866;12.750;2022-10-23T00:51:19;5.67;;;3.33;;
4375;SDS011;2202;50.866;12.750;2022-10-23T00:53:48;7.53;;;4.10;;
4375;SDS011;2202;50.866;12.750;2022-10-23T00:56:17;5.63;;;3.60;;
4375;SDS011;2202;50.866;12.750;2022-10-23T00:58:44;11.40;;;4.03;;
4375;SDS011;2202;50.866;12.750;2022-10-23T01:01:15;6.30;;;4.33;;
4375;SDS011;2202;50.866;12.750;2022-10-23T01:03:45;9.63;;;3.70;;
4375;SDS011;2202;50.866;12.750;2022-10-23T01:06:14;4.73;;;2.97;;
4375;SDS011;2202;50.866;12.750;2022-10-23T01:08:45;4.10;;;2.90;;
4375;SDS011;2202;50.866;12.750;2022-10-23T01:11:21;3.70;;;3.07;;
4375;SDS011;2202;50.866;12.750;2022-10-23T01:13:54;9.80;;;3.43;;
4375;SDS011;2202;50.866;12.750;2022-10-23T01:16:29;4.90;;;2.97;;
4375;SDS011;2202;50.866;12.750;2022-10-23T01:19:04;10.40;;;3.77;;
4375;SDS011;2202;50.866;12.750;2022-10-23T01:21:40;6.43;;;3.33;;
4375;SDS011;2202;50.866;12.750;2022-10-23T01:24:23;6.17;;;3.63;;
4375;SDS011;2202;50.866;12.750;2022-10-23T01:27:14;6.00;;;3.27;;
4375;SDS011;2202;50.866;12.750;2022-10-23T01:29:47;6.37;;;2.90;;
4375;SDS011;2202;50.866;12.750;2022-10-23T01:32:20;4.93;;;2.63;;
4375;SDS011;2202;50.866;12.750;2022-10-23T01:34:55;7.33;;;3.27;;
4375;SDS011;2202;50.866;12.750;2022-10-23T01:37:29;4.10;;;2.53;;
4375;SDS011;2202;50.866;12.750;2022-10-23T01:40:03;8.47;;;2.60;;
4375;SDS011;2202;50.866;12.750;2022-10-23T01:42:37;5.30;;;3.00;;
4375;SDS011;2202;50.866;12.750;2022-10-23T01:45:11;6.73;;;2.93;;
4375;SDS011;2202;50.866;12.750;2022-10-23T01:47:41;3.57;;;2.50;;
4375;SDS011;2202;50.866;12.750;2022-10-23T01:50:10;5.13;;;2.70;;
4375;SDS011;2202;50.866;12.750;2022-10-23T01:52:39;9.50;;;3.60;;
4375;SDS011;2202;50.866;12.750;2022-10-23T01:55:07;13.33;;;3.10;;
4375;SDS011;2202;50.866;12.750;2022-10-23T01:57:38;5.27;;;2.87;;
4375;SDS011;2202;50.866;12.750;2022-10-23T02:00:07;8.70;;;3.00;;
4375;SDS011;2202;50.866;12.750;2022-10-23T02:02:36;8.63;;;3.10;;
4375;SDS011;2202;50.866;12.750;2022-10-23T02:05:06;7.00;;;3.20;;
4375;SDS011;2202;50.866;12.750;2022-10-23T02:07:37;3.73;;;2.53;;
4375;SDS011;2202;50.866;12.750;2022-10-23T02:10:04;16.30;;;3.27;;
4375;SDS011;2202;50.866;12.750;2022-10-23T02:12:35;4.53;;;2.40;;
4375;SDS011;2202;50.866;12.750;2022-10-23T02:15:11;5.87;;;2.63;;
4375;SDS011;2202;50.866;12.750;2022-10-23T02:17:46;6.43;;;3.00;;
4375;SDS011;2202;50.866;12.750;2022-10-23T02:20:21;4.30;;;2.80;;
4375;SDS011;2202;50.866;12.750;2022-10-23T02:22:54;5.60;;;2.60;;
4375;SDS011;2202;50.866;12.750;2022-10-23T02:25:27;4.40;;;2.53;;
4375;SDS011;2202;50.866;12.750;2022-10-23T02:27:59;5.00;;;2.70;;
4375;SDS011;2202;50.866;12.750;2022-10-23T02:30:29;7.03;;;2.63;;
4375;SDS011;2202;50.866;12.750;2022-10-23T02:33:01;4.60;;;2.40;;
4375;SDS011;2202;50.866;12.750;2022-10-23T02:35:29;6.50;;;3.00;;
4375;SDS011;2202;50.866;12.750;2022-10-23T02:37:57;4.60;;;3.13;;
4375;SDS011;2202;50.866;12.750;2022-10-23T02:40:40;5.70;;;3.23;;
4375;SDS011;2202;50.866;12.750;2022-10-23T02:43:12;7.10;;;2.27;;
4375;SDS011;2202;50.866;12.750;2022-10-23T02:45:45;3.73;;;2.50;;
4375;SDS011;2202;50.866;12.750;2022-10-23T02:48:19;3.67;;;2.20;;
4375;SDS011;2202;50.866;12.750;2022-10-23T02:50:53;4.80;;;2.53;;
4375;SDS011;2202;50.866;12.750;2022-10-23T02:53:29;5.23;;;2.77;;
4375;SDS011;2202;50.866;12.750;2022-10-23T02:56:06;4.17;;;2.23;;
4375;SDS011;2202;50.866;12.750;2022-10-23T02:58:40;4.10;;;2.30;;
4375;SDS011;2202;50.866;12.750;2022-10-23T03:01:14;6.03;;;2.10;;
4375;SDS011;2202;50.866;12.750;2022-10-23T03:03:44;5.57;;;2.10;;
4375;SDS011;2202;50.866;12.750;2022-10-23T03:06:16;5.80;;;2.73;;
4375;SDS011;2202;50.866;12.750;2022-10-23T03:08:43;4.23;;;2.30;;
4375;SDS011;2202;50.866;12.750;2022-10-23T03:11:14;3.43;;;2.47;;
4375;SDS011;2202;50.866;12.750;2022-10-23T03:13:42;3.37;;;2.27;;
4375;SDS011;2202;50.866;12.750;2022-10-23T03:16:09;3.47;;;2.00;;
4375;SDS011;2202;50.866;12.750;2022-10-23T03:18:36;4.10;;;2.27;;
4375;SDS011;2202;50.866;12.750;2022-10-23T03:21:03;12.17;;;2.10;;
4375;SDS011;2202;50.866;12.750;2022-10-23T03:23:30;3.47;;;2.10;;
4375;SDS011;2202;50.866;12.750;2022-10-23T03:25:56;3.53;;;2.27;;
4375;SDS011;2202;50.866;12.750;2022-10-23T03:28:23;6.93;;;2.87;;
4375;SDS011;2202;50.866;12.750;2022-10-23T03:30:51;5.67;;;2.10;;
4375;SDS011;2202;50.866;12.750;2022-10-23T03:33:18;6.90;;;2.53;;
4375;SDS011;2202;50.866;12.750;2022-10-23T03:35:46;4.93;;;2.50;;
4375;SDS011;2202;50.866;12.750;2022-10-23T03:38:13;4.77;;;2.90;;
4375;SDS011;2202;50.866;12.750;2022-10-23T03:40:41;5.73;;;3.33;;
4375;SDS011;2202;50.866;12.750;2022-10-23T03:43:08;6.57;;;3.80;;
4375;SDS011;2202;50.866;12.750;2022-10-23T03:45:35;4.60;;;2.00;;
4375;SDS011;2202;50.866;12.750;2022-10-23T03:48:04;7.70;;;2.83;;
4375;SDS011;2202;50.866;12.750;2022-10-23T03:50:31;3.80;;;2.03;;
4375;SDS011;2202;50.866;12.750;2022-10-23T03:52:58;5.50;;;2.13;;
4375;SDS011;2202;50.866;12.750;2022-10-23T03:55:25;3.40;;;2.33;;
4375;SDS011;2202;50.866;12.750;2022-10-23T03:57:52;4.50;;;2.63;;
4375;SDS011;2202;50.866;12.750;2022-10-23T04:00:19;3.70;;;1.87;;
4375;SDS011;2202;50.866;12.750;2022-10-23T04:02:47;7.87;;;3.33;;
4375;SDS011;2202;50.866;12.750;2022-10-23T04:05:15;5.40;;;2.90;;
4375;SDS011;2202;50.866;12.750;2022-10-23T04:07:42;12.77;;;2.37;;
4375;SDS011;2202;50.866;12.750;2022-10-23T04:10:09;4.10;;;2.27;;
4375;SDS011;2202;50.866;12.750;2022-10-23T04:12:36;4.30;;;3.00;;
4375;SDS011;2202;50.866;12.750;2022-10-23T04:15:03;5.13;;;2.30;;
4375;SDS011;2202;50.866;12.750;2022-10-23T04:17:30;5.10;;;2.53;;
4375;SDS011;2202;50.866;12.750;2022-10-23T04:19:57;5.07;;;2.23;;
4375;SDS011;2202;50.866;12.750;2022-10-23T04:22:25;6.20;;;2.60;;
4375;SDS011;2202;50.866;12.750;2022-10-23T04:24:52;3.80;;;2.23;;
4375;SDS011;2202;50.866;12.750;2022-10-23T04:27:19;5.20;;;2.17;;
4375;SDS011;2202;50.866;12.750;2022-10-23T04:29:46;6.73;;;2.30;;
4375;SDS011;2202;50.866;12.750;2022-10-23T04:32:13;3.83;;;2.03;;
4375;SDS011;2202;50.866;12.750;2022-10-23T04:34:40;3.77;;;2.20;;
4375;SDS011;2202;50.866;12.750;2022-10-23T04:37:07;3.30;;;1.77;;
4375;SDS011;2202;50.866;12.750;2022-10-23T04:39:35;3.90;;;1.80;;
4375;SDS011;2202;50.866;12.750;2022-10-23T04:42:02;3.73;;;2.10;;
4375;SDS011;2202;50.866;12.750;2022-10-23T04:44:29;4.87;;;2.40;;
4375;SDS011;2202;50.866;12.750;2022-10-23T04:46:56;4.63;;;2.20;;
4375;SDS011;2202;50.866;12.750;2022-10-23T04:49:23;4.43;;;2.13;;
4375;SDS011;2202;50.866;12.750;2022-10-23T04:51:49;3.60;;;1.83;;
4375;SDS011;2202;50.866;12.750;2022-10-23T04:54:16;10.13;;;2.03;;
4375;SDS011;2202;50.866;12.750;2022-10-23T04:56:45;3.10;;;2.00;;
4375;SDS011;2202;50.866;12.750;2022-10-23T04:59:12;3.33;;;2.07;;
4375;SDS011;2202;50.866;12.750;2022-10-23T05:01:38;3.37;;;1.93;;
4375;SDS011;2202;50.866;12.750;2022-10-23T05:04:05;3.60;;;1.90;;
4375;SDS011;2202;50.866;12.750;2022-10-23T05:06:32;4.70;;;1.90;;
4375;SDS011;2202;50.866;12.750;2022-10-23T05:08:59;6.70;;;2.13;;
4375;SDS011;2202;50.866;12.750;2022-10-23T05:11:26;7.33;;;2.20;;
4375;SDS011;2202;50.866;12.750;2022-10-23T05:13:54;3.23;;;2.00;;
4375;SDS011;2202;50.866;12.750;2022-10-23T05:16:25;2.77;;;1.60;;
4375;SDS011;2202;50.866;12.750;2022-10-23T05:18:58;6.23;;;2.30;;
4375;SDS011;2202;50.866;12.750;2022-10-23T05:21:26;4.00;;;1.67;;
4375;SDS011;2202;50.866;12.750;2022-10-23T05:23:55;8.03;;;2.33;;
4375;SDS011;2202;50.866;12.750;2022-10-23T05:26:22;3.87;;;1.80;;
4375;SDS011;2202;50.866;12.750;2022-10-23T05:28:49;5.70;;;2.30;;
4375;SDS011;2202;50.866;12.750;2022-10-23T05:31:17;4.57;;;2.10;;
4375;SDS011;2202;50.866;12.750;2022-10-23T05:33:46;4.50;;;1.80;;
4375;SDS011;2202;50.866;12.750;2022-10-23T05:36:13;3.43;;;1.97;;
4375;SDS011;2202;50.866;12.750;2022-10-23T05:38:41;6.13;;;2.57;;
4375;SDS011;2202;50.866;12.750;2022-10-23T05:41:08;5.90;;;2.33;;
4375;SDS011;2202;50.866;12.750;2022-10-23T05:43:35;3.87;;;2.27;;
4375;SDS011;2202;50.866;12.750;2022-10-23T05:46:03;6.77;;;2.70;;
4375;SDS011;2202;50.866;12.750;2022-10-23T05:48:32;4.40;;;2.23;;
4375;SDS011;2202;50.866;12.750;2022-10-23T05:51:03;3.23;;;1.93;;
4375;SDS011;2202;50.866;12.750;2022-10-23T05:53:30;9.40;;;2.47;;
4375;SDS011;2202;50.866;12.750;2022-10-23T05:56:02;3.00;;;1.90;;
4375;SDS011;2202;50.866;12.750;2022-10-23T05:58:30;3.40;;;2.23;;
4375;SDS011;2202;50.866;12.750;2022-10-23T06:00:57;6.57;;;2.40;;
4375;SDS011;2202;50.866;12.750;2022-10-23T06:03:24;3.60;;;2.17;;
4375;SDS011;2202;50.866;12.750;2022-10-23T06:05:52;4.97;;;2.20;;
4375;SDS011;2202;50.866;12.750;2022-10-23T06:08:19;3.03;;;2.40;;
4375;SDS011;2202;50.866;12.750;2022-10-23T06:10:46;4.80;;;2.40;;
4375;SDS011;2202;50.866;12.750;2022-10-23T06:13:13;5.50;;;3.20;;
4375;SDS011;2202;50.866;12.750;2022-10-23T06:15:40;4.63;;;2.37;;
4375;SDS011;2202;50.866;12.750;2022-10-23T06:18:07;4.63;;;2.27;;
4375;SDS011;2202;50.866;12.750;2022-10-23T06:20:34;3.40;;;2.30;;
4375;SDS011;2202;50.866;12.750;2022-10-23T06:23:04;4.30;;;2.90;;
4375;SDS011;2202;50.866;12.750;2022-10-23T06:25:31;4.30;;;2.63;;
4375;SDS011;2202;50.866;12.750;2022-10-23T06:27:58;4.40;;;3.40;;
4375;SDS011;2202;50.866;12.750;2022-10-23T06:30:25;6.13;;;3.23;;
4375;SDS011;2202;50.866;12.750;2022-10-23T06:32:52;7.17;;;3.70;;
4375;SDS011;2202;50.866;12.750;2022-10-23T06:35:19;9.73;;;3.20;;
4375;SDS011;2202;50.866;12.750;2022-10-23T06:37:46;9.10;;;4.20;;
4375;SDS011;2202;50.866;12.750;2022-10-23T06:40:14;7.27;;;4.47;;
4375;SDS011;2202;50.866;12.750;2022-10-23T06:42:41;7.40;;;4.20;;
4375;SDS011;2202;50.866;12.750;2022-10-23T06:45:08;9.57;;;4.53;;
4375;SDS011;2202;50.866;12.750;2022-10-23T06:47:35;5.27;;;4.40;;
4375;SDS011;2202;50.866;12.750;2022-10-23T06:50:02;6.17;;;4.40;;
4375;SDS011;2202;50.866;12.750;2022-10-23T06:52:30;5.50;;;4.20;;
4375;SDS011;2202;50.866;12.750;2022-10-23T06:54:57;6.33;;;3.60;;
4375;SDS011;2202;50.866;12.750;2022-10-23T06:57:25;6.13;;;4.23;;
4375;SDS011;2202;50.866;12.750;2022-10-23T06:59:52;4.17;;;3.00;;
4375;SDS011;2202;50.866;12.750;2022-10-23T07:02:19;9.80;;;4.20;;
4375;SDS011;2202;50.866;12.750;2022-10-23T07:04:45;7.13;;;3.40;;
4375;SDS011;2202;50.866;12.750;2022-10-23T07:07:12;7.17;;;3.17;;
4375;SDS011;2202;50.866;12.750;2022-10-23T07:09:39;7.13;;;2.93;;
4375;SDS011;2202;50.866;12.750;2022-10-23T07:12:06;7.83;;;2.60;;
4375;SDS011;2202;50.866;12.750;2022-10-23T07:14:35;8.67;;;2.80;;
4375;SDS011;2202;50.866;12.750;2022-10-23T07:17:02;6.77;;;2.53;;
4375;SDS011;2202;50.866;12.750;2022-10-23T07:19:29;8.90;;;2.00;;
4375;SDS011;2202;50.866;12.750;2022-10-23T07:21:56;7.00;;;2.70;;
4375;SDS011;2202;50.866;12.750;2022-10-23T07:24:22;4.20;;;2.20;;
4375;SDS011;2202;50.866;12.750;2022-10-23T07:26:49;3.67;;;2.17;;
4375;SDS011;2202;50.866;12.750;2022-10-23T07:29:16;3.30;;;2.20;;
4375;SDS011;2202;50.866;12.750;2022-10-23T07:31:44;3.53;;;2.50;;
4375;SDS011;2202;50.866;12.750;2022-10-23T07:34:11;4.87;;;2.70;;
4375;SDS011;2202;50.866;12.750;2022-10-23T07:36:38;2.20;;;1.90;;
4375;SDS011;2202;50.866;12.750;2022-10-23T07:39:05;9.23;;;2.80;;
4375;SDS011;2202;50.866;12.750;2022-10-23T07:41:32;4.77;;;2.10;;
4375;SDS011;2202;50.866;12.750;2022-10-23T07:43:58;2.40;;;1.77;;
4375;SDS011;2202;50.866;12.750;2022-10-23T07:46:25;2.40;;;1.80;;
4375;SDS011;2202;50.866;12.750;2022-10-23T07:48:53;2.00;;;1.60;;
4375;SDS011;2202;50.866;12.750;2022-10-23T07:51:20;2.87;;;1.70;;
4375;SDS011;2202;50.866;12.750;2022-10-23T07:53:47;2.90;;;2.07;;
4375;SDS011;2202;50.866;12.750;2022-10-23T07:56:15;3.03;;;1.93;;
4375;SDS011;2202;50.866;12.750;2022-10-23T07:58:45;3.80;;;2.10;;
4375;SDS011;2202;50.866;12.750;2022-10-23T08:01:15;2.80;;;2.03;;
4375;SDS011;2202;50.866;12.750;2022-10-23T08:03:44;5.00;;;2.23;;
4375;SDS011;2202;50.866;12.750;2022-10-23T08:06:12;3.20;;;1.77;;
4375;SDS011;2202;50.866;12.750;2022-10-23T08:08:39;3.63;;;1.90;;
4375;SDS011;2202;50.866;12.750;2022-10-23T08:11:06;2.50;;;2.10;;
4375;SDS011;2202;50.866;12.750;2022-10-23T08:13:35;2.87;;;2.07;;
4375;SDS011;2202;50.866;12.750;2022-10-23T08:16:02;4.37;;;2.33;;
4375;SDS011;2202;50.866;12.750;2022-10-23T08:18:30;2.17;;;1.73;;
4375;SDS011;2202;50.866;12.750;2022-10-23T08:20:58;2.77;;;2.10;;
4375;SDS011;2202;50.866;12.750;2022-10-23T08:23:28;2.40;;;2.10;;
4375;SDS011;2202;50.866;12.750;2022-10-23T08:25:56;9.00;;;3.83;;
4375;SDS011;2202;50.866;12.750;2022-10-23T08:28:24;6.67;;;2.13;;
4375;SDS011;2202;50.866;12.750;2022-10-23T08:30:51;3.13;;;2.20;;
4375;SDS011;2202;50.866;12.750;2022-10-23T08:33:18;3.00;;;1.60;;
4375;SDS011;2202;50.866;12.750;2022-10-23T08:35:45;3.17;;;2.07;;
4375;SDS011;2202;50.866;12.750;2022-10-23T08:38:12;2.93;;;2.00;;
4375;SDS011;2202;50.866;12.750;2022-10-23T08:40:43;3.70;;;2.10;;
4375;SDS011;2202;50.866;12.750;2022-10-23T08:43:13;4.37;;;2.40;;
4375;SDS011;2202;50.866;12.750;2022-10-23T08:45:46;3.60;;;1.97;;
4375;SDS011;2202;50.866;12.750;2022-10-23T08:48:16;2.50;;;1.73;;
4375;SDS011;2202;50.866;12.750;2022-10-23T08:50:49;2.10;;;1.50;;
4375;SDS011;2202;50.866;12.750;2022-10-23T08:53:21;4.23;;;2.00;;
4375;SDS011;2202;50.866;12.750;2022-10-23T08:55:56;3.15;;;2.10;;
4375;SDS011;2202;50.866;12.750;2022-10-23T08:58:28;2.83;;;2.53;;
4375;SDS011;2202;50.866;12.750;2022-10-23T09:01:01;8.03;;;2.70;;
4375;SDS011;2202;50.866;12.750;2022-10-23T09:04:01;2.50;;;1.70;;
4375;SDS011;2202;50.866;12.750;2022-10-23T09:06:32;2.00;;;1.60;;
4375;SDS011;2202;50.866;12.750;2022-10-23T09:09:16;2.03;;;1.83;;
4375;SDS011;2202;50.866;12.750;2022-10-23T09:12:04;2.07;;;1.83;;
4375;SDS011;2202;50.866;12.750;2022-10-23T09:14:39;3.20;;;2.23;;
4375;SDS011;2202;50.866;12.750;2022-10-23T09:17:24;2.73;;;2.00;;
4375;SDS011;2202;50.866;12.750;2022-10-23T09:19:54;4.73;;;2.00;;
4375;SDS011;2202;50.866;12.750;2022-10-23T09:22:27;2.77;;;2.30;;
4375;SDS011;2202;50.866;12.750;2022-10-23T09:24:54;2.57;;;2.03;;
4375;SDS011;2202;50.866;12.750;2022-10-23T09:27:23;2.27;;;1.90;;
4375;SDS011;2202;50.866;12.750;2022-10-23T09:29:51;3.63;;;2.20;;
4375;SDS011;2202;50.866;12.750;2022-10-23T09:32:20;3.30;;;2.50;;
4375;SDS011;2202;50.866;12.750;2022-10-23T09:34:58;4.20;;;2.30;;
4375;SDS011;2202;50.866;12.750;2022-10-23T09:37:26;2.00;;;1.80;;
4375;SDS011;2202;50.866;12.750;2022-10-23T09:40:01;3.07;;;2.30;;
4375;SDS011;2202;50.866;12.750;2022-10-23T09:45:39;3.80;;;2.20;;
4375;SDS011;2202;50.866;12.750;2022-10-23T09:48:11;2.93;;;2.50;;
4375;SDS011;2202;50.866;12.750;2022-10-23T09:50:50;2.77;;;2.27;;
4375;SDS011;2202;50.866;12.750;2022-10-23T09:53:21;2.33;;;2.13;;
4375;SDS011;2202;50.866;12.750;2022-10-23T09:55:52;3.50;;;2.33;;
4375;SDS011;2202;50.866;12.750;2022-10-23T09:58:26;2.73;;;2.53;;
4375;SDS011;2202;50.866;12.750;2022-10-23T10:00:57;3.27;;;1.90;;
4375;SDS011;2202;50.866;12.750;2022-10-23T10:03:24;2.30;;;1.70;;
4375;SDS011;2202;50.866;12.750;2022-10-23T10:05:55;1.80;;;1.70;;
4375;SDS011;2202;50.866;12.750;2022-10-23T10:08:26;2.33;;;1.50;;
4375;SDS011;2202;50.866;12.750;2022-10-23T10:11:01;3.20;;;1.80;;
4375;SDS011;2202;50.866;12.750;2022-10-23T10:13:38;2.70;;;1.77;;
4375;SDS011;2202;50.866;12.750;2022-10-23T10:16:21;4.27;;;1.40;;
4375;SDS011;2202;50.866;12.750;2022-10-23T10:18:54;2.73;;;1.60;;
4375;SDS011;2202;50.866;12.750;2022-10-23T10:21:28;2.10;;;1.20;;
4375;SDS011;2202;50.866;12.750;2022-10-23T10:24:02;2.33;;;1.20;;
4375;SDS011;2202;50.866;12.750;2022-10-23T10:26:33;3.00;;;1.20;;
4375;SDS011;2202;50.866;12.750;2022-10-23T10:29:12;1.77;;;1.00;;
4375;SDS011;2202;50.866;12.750;2022-10-23T10:31:53;1.60;;;1.50;;
4375;SDS011;2202;50.866;12.750;2022-10-23T10:34:31;2.67;;;1.07;;
4375;SDS011;2202;50.866;12.750;2022-10-23T10:37:08;1.40;;;0.90;;
4375;SDS011;2202;50.866;12.750;2022-10-23T10:39:45;1.77;;;1.10;;
4375;SDS011;2202;50.866;12.750;2022-10-23T10:42:24;2.63;;;1.03;;
4375;SDS011;2202;50.866;12.750;2022-10-23T10:45:18;1.93;;;1.00;;
4375;SDS011;2202;50.866;12.750;2022-10-23T10:48:00;1.73;;;1.20;;
4375;SDS011;2202;50.866;12.750;2022-10-23T10:50:38;2.20;;;1.00;;
4375;SDS011;2202;50.866;12.750;2022-10-23T10:53:13;1.77;;;1.10;;
4375;SDS011;2202;50.866;12.750;2022-10-23T10:55:45;1.90;;;1.33;;
4375;SDS011;2202;50.866;12.750;2022-10-23T10:58:19;3.03;;;1.30;;
4375;SDS011;2202;50.866;12.750;2022-10-23T11:00:54;3.10;;;1.10;;
4375;SDS011;2202;50.866;12.750;2022-10-23T11:03:26;7.00;;;1.00;;
4375;SDS011;2202;50.866;12.750;2022-10-23T11:05:58;2.00;;;1.37;;
4375;SDS011;2202;50.866;12.750;2022-10-23T11:08:29;1.73;;;0.80;;
4375;SDS011;2202;50.866;12.750;2022-10-23T11:11:03;2.33;;;0.80;;
4375;SDS011;2202;50.866;12.750;2022-10-23T11:13:34;2.17;;;1.10;;
4375;SDS011;2202;50.866;12.750;2022-10-23T11:16:05;4.13;;;1.20;;
4375;SDS011;2202;50.866;12.750;2022-10-23T11:18:38;1.50;;;1.00;;
4375;SDS011;2202;50.866;12.750;2022-10-23T11:21:09;1.83;;;1.30;;
4375;SDS011;2202;50.866;12.750;2022-10-23T11:27:16;3.23;;;1.13;;
4375;SDS011;2202;50.866;12.750;2022-10-23T11:30:14;2.40;;;0.90;;
4375;SDS011;2202;50.866;12.750;2022-10-23T11:33:05;2.03;;;1.20;;
4375;SDS011;2202;50.866;12.750;2022-10-23T11:35:56;2.03;;;1.40;;
4375;SDS011;2202;50.866;12.750;2022-10-23T11:38:32;2.77;;;1.23;;
4375;SDS011;2202;50.866;12.750;2022-10-23T11:41:01;2.83;;;1.27;;
4375;SDS011;2202;50.866;12.750;2022-10-23T11:43:31;1.50;;;1.03;;
4375;SDS011;2202;50.866;12.750;2022-10-23T11:46:10;3.93;;;1.30;;
4375;SDS011;2202;50.866;12.750;2022-10-23T11:48:40;1.70;;;1.00;;
4375;SDS011;2202;50.866;12.750;2022-10-23T11:51:25;2.23;;;1.20;;
4375;SDS011;2202;50.866;12.750;2022-10-23T11:54:03;3.70;;;1.17;;
4375;SDS011;2202;50.866;12.750;2022-10-23T11:56:31;4.40;;;1.10;;
4375;SDS011;2202;50.866;12.750;2022-10-23T11:59:09;1.43;;;1.00;;
4375;SDS011;2202;50.866;12.750;2022-10-23T12:01:46;1.37;;;0.90;;
4375;SDS011;2202;50.866;12.750;2022-10-23T12:04:19;2.67;;;1.23;;
4375;SDS011;2202;50.866;12.750;2022-10-23T12:06:50;1.73;;;0.80;;
4375;SDS011;2202;50.866;12.750;2022-10-23T12:09:21;1.57;;;0.80;;
4375;SDS011;2202;50.866;12.750;2022-10-23T12:12:01;2.17;;;0.90;;
4375;SDS011;2202;50.866;12.750;2022-10-23T12:14:31;2.67;;;1.10;;
4375;SDS011;2202;50.866;12.750;2022-10-23T12:16:59;2.20;;;0.80;;
4375;SDS011;2202;50.866;12.750;2022-10-23T12:19:29;1.60;;;0.70;;
4375;SDS011;2202;50.866;12.750;2022-10-23T12:22:09;1.37;;;0.73;;
4375;SDS011;2202;50.866;12.750;2022-10-23T12:24:38;1.30;;;0.70;;
4375;SDS011;2202;50.866;12.750;2022-10-23T12:27:19;5.00;;;1.10;;
4375;SDS011;2202;50.866;12.750;2022-10-23T12:30:00;1.33;;;0.70;;
4375;SDS011;2202;50.866;12.750;2022-10-23T12:35:51;6.03;;;1.17;;
4375;SDS011;2202;50.866;12.750;2022-10-23T12:38:38;1.40;;;0.83;;
4375;SDS011;2202;50.866;12.750;2022-10-23T12:41:10;2.00;;;0.83;;
4375;SDS011;2202;50.866;12.750;2022-10-23T12:43:39;2.90;;;0.83;;
4375;SDS011;2202;50.866;12.750;2022-10-23T12:46:17;1.40;;;0.80;;
4375;SDS011;2202;50.866;12.750;2022-10-23T12:48:54;1.40;;;0.90;;
4375;SDS011;2202;50.866;12.750;2022-10-23T12:51:25;1.50;;;0.83;;
4375;SDS011;2202;50.866;12.750;2022-10-23T12:53:53;1.77;;;0.97;;
4375;SDS011;2202;50.866;12.750;2022-10-23T12:56:20;3.93;;;1.10;;
4375;SDS011;2202;50.866;12.750;2022-10-23T12:58:50;2.03;;;1.13;;
4375;SDS011;2202;50.866;12.750;2022-10-23T13:01:22;2.53;;;0.90;;
4375;SDS011;2202;50.866;12.750;2022-10-23T13:03:51;3.30;;;0.90;;
4375;SDS011;2202;50.866;12.750;2022-10-23T13:06:25;1.27;;;0.77;;
4375;SDS011;2202;50.866;12.750;2022-10-23T13:08:52;4.07;;;1.17;;
4375;SDS011;2202;50.866;12.750;2022-10-23T13:11:20;3.90;;;0.90;;
4375;SDS011;2202;50.866;12.750;2022-10-23T13:13:48;4.23;;;1.30;;
4375;SDS011;2202;50.866;12.750;2022-10-23T13:16:16;3.23;;;1.27;;
4375;SDS011;2202;50.866;12.750;2022-10-23T13:18:44;2.00;;;0.93;;
4375;SDS011;2202;50.866;12.750;2022-10-23T13:21:15;3.20;;;0.90;;
4375;SDS011;2202;50.866;12.750;2022-10-23T13:23:46;1.70;;;1.20;;
4375;SDS011;2202;50.866;12.750;2022-10-23T13:26:23;3.57;;;1.10;;
4375;SDS011;2202;50.866;12.750;2022-10-23T13:28:55;2.67;;;1.30;;
4375;SDS011;2202;50.866;12.750;2022-10-23T13:31:24;1.70;;;0.90;;
4375;SDS011;2202;50.866;12.750;2022-10-23T13:34:03;3.97;;;1.23;;
4375;SDS011;2202;50.866;12.750;2022-10-23T13:36:51;1.80;;;1.27;;
4375;SDS011;2202;50.866;12.750;2022-10-23T13:39:28;5.93;;;1.60;;
4375;SDS011;2202;50.866;12.750;2022-10-23T13:41:59;2.90;;;1.60;;
4375;SDS011;2202;50.866;12.750;2022-10-23T13:44:35;2.70;;;2.20;;
4375;SDS011;2202;50.866;12.750;2022-10-23T13:47:02;5.10;;;1.90;;
4375;SDS011;2202;50.866;12.750;2022-10-23T13:49:29;3.23;;;1.70;;
4375;SDS011;2202;50.866;12.750;2022-10-23T13:51:56;3.20;;;1.97;;
4375;SDS011;2202;50.866;12.750;2022-10-23T13:54:24;5.13;;;1.70;;
4375;SDS011;2202;50.866;12.750;2022-10-23T13:56:54;6.40;;;1.50;;
4375;SDS011;2202;50.866;12.750;2022-10-23T13:59:22;2.70;;;1.77;;
4375;SDS011;2202;50.866;12.750;2022-10-23T14:01:49;2.00;;;1.57;;
4375;SDS011;2202;50.866;12.750;2022-10-23T14:04:17;2.33;;;1.80;;
4375;SDS011;2202;50.866;12.750;2022-10-23T14:06:44;2.97;;;2.03;;
4375;SDS011;2202;50.866;12.750;2022-10-23T14:09:12;3.30;;;1.97;;
4375;SDS011;2202;50.866;12.750;2022-10-23T14:11:41;2.07;;;1.60;;
4375;SDS011;2202;50.866;12.750;2022-10-23T14:14:09;2.20;;;1.80;;
4375;SDS011;2202;50.866;12.750;2022-10-23T14:16:36;4.43;;;1.80;;
4375;SDS011;2202;50.866;12.750;2022-10-23T14:19:03;1.87;;;1.57;;
4375;SDS011;2202;50.866;12.750;2022-10-23T14:21:30;2.37;;;2.03;;
4375;SDS011;2202;50.866;12.750;2022-10-23T14:23:57;2.40;;;1.80;;
4375;SDS011;2202;50.866;12.750;2022-10-23T14:26:25;3.90;;;1.60;;
4375;SDS011;2202;50.866;12.750;2022-10-23T14:28:54;1.90;;;1.67;;
4375;SDS011;2202;50.866;12.750;2022-10-23T14:31:23;2.63;;;2.00;;
4375;SDS011;2202;50.866;12.750;2022-10-23T14:33:51;1.97;;;1.70;;
4375;SDS011;2202;50.866;12.750;2022-10-23T14:36:20;2.53;;;1.90;;
4375;SDS011;2202;50.866;12.750;2022-10-23T14:38:47;2.10;;;1.90;;
4375;SDS011;2202;50.866;12.750;2022-10-23T14:41:15;5.40;;;2.30;;
4375;SDS011;2202;50.866;12.750;2022-10-23T14:43:42;2.30;;;2.10;;
4375;SDS011;2202;50.866;12.750;2022-10-23T14:46:10;5.93;;;2.13;;
4375;SDS011;2202;50.866;12.750;2022-10-23T14:48:40;2.53;;;2.30;;
4375;SDS011;2202;50.866;12.750;2022-10-23T14:51:14;7.70;;;3.43;;
4375;SDS011;2202;50.866;12.750;2022-10-23T14:53:43;3.80;;;2.97;;
4375;SDS011;2202;50.866;12.750;2022-10-23T14:56:10;4.03;;;2.40;;
4375;SDS011;2202;50.866;12.750;2022-10-23T14:58:37;5.60;;;2.20;;
4375;SDS011;2202;50.866;12.750;2022-10-23T15:01:04;9.90;;;3.40;;
4375;SDS011;2202;50.866;12.750;2022-10-23T15:03:31;9.73;;;3.67;;
4375;SDS011;2202;50.866;12.750;2022-10-23T15:05:59;6.97;;;4.30;;
4375;SDS011;2202;50.866;12.750;2022-10-23T15:08:26;7.00;;;3.73;;
4375;SDS011;2202;50.866;12.750;2022-10-23T15:10:53;8.53;;;2.80;;
4375;SDS011;2202;50.866;12.750;2022-10-23T15:13:24;2.30;;;1.70;;
4375;SDS011;2202;50.866;12.750;2022-10-23T15:15:59;2.93;;;1.37;;
4375;SDS011;2202;50.866;12.750;2022-10-23T15:18:27;1.77;;;1.60;;
4375;SDS011;2202;50.866;12.750;2022-10-23T15:20:54;1.70;;;1.40;;
4375;SDS011;2202;50.866;12.750;2022-10-23T15:23:22;1.70;;;1.40;;
4375;SDS011;2202;50.866;12.750;2022-10-23T15:25:53;3.27;;;2.17;;
4375;SDS011;2202;50.866;12.750;2022-10-23T15:28:21;2.80;;;1.73;;
4375;SDS011;2202;50.866;12.750;2022-10-23T15:30:48;2.00;;;1.73;;